sensor_id;sensor_type;location;lat;lon;timestamp;pressure;altitude;pressure_sealevel;temperature;humidity
44531;BME280;30240;47.418;0.700;2023-04-04T00:02:13;101086.63940429688;;;5.0;78.52
44531;BME280;30240;47.418;0.700;2023-04-04T00:04:39;101091.63818359375;;;4.93;78.42
44531;BME280;30240;47.418;0.700;2023-04-04T00:07:04;101092.32177734375;;;4.87;78.58
44531;BME280;30240;47.418;0.700;2023-04-04T00:09:28;101092.32177734375;;;4.87;78.58
44531;BME280;30240;47.418;0.700;2023-04-04T00:11:54;101089.81323242188;;;4.91;78.73
44531;BME280;30240;47.418;0.700;2023-04-04T00:14:18;101090.966796875;;;4.86;78.52
44531;BME280;30240;47.418;0.700;2023-04-04T00:16:44;101087.12768554688;;;4.86;78.45
44531;BME280;30240;47.418;0.700;2023-04-04T00:19:08;101087.646484375;;;4.88;78.32
44531;BME280;30240;47.418;0.700;2023-04-04T00:21:34;101087.646484375;;;4.88;78.32
44531;BME280;30240;47.418;0.700;2023-04-04T00:23:59;101090.15502929688;;;4.83;78.39
44531;BME280;30240;47.418;0.700;2023-04-04T00:26:24;101086.77978515625;;;4.77;78.29
44531;BME280;30240;47.418;0.700;2023-04-04T00:28:49;101080.859375;;;4.8;78.19
44531;BME280;30240;47.418;0.700;2023-04-04T00:31:14;101080.859375;;;4.81;78.1
44531;BME280;30240;47.418;0.700;2023-04-04T00:33:38;101080.859375;;;4.81;78.1
44531;BME280;30240;47.418;0.700;2023-04-04T00:36:04;101075.30517578125;;;4.81;78.08
44531;BME280;30240;47.418;0.700;2023-04-04T00:38:29;101075.57983398438;;;4.83;78.11
44531;BME280;30240;47.418;0.700;2023-04-04T00:40:55;101079.26635742188;;;4.8;78.0
44531;BME280;30240;47.418;0.700;2023-04-04T00:43:19;101080.0537109375;;;4.76;78.14
44531;BME280;30240;47.418;0.700;2023-04-04T00:45:44;101080.224609375;;;4.75;78.12
44531;BME280;30240;47.418;0.700;2023-04-04T00:48:09;101080.224609375;;;4.75;78.12
44531;BME280;30240;47.418;0.700;2023-04-04T00:50:34;101081.298828125;;;4.7;78.08
44531;BME280;30240;47.418;0.700;2023-04-04T00:52:59;101084.23461914062;;;4.68;78.42
44531;BME280;30240;47.418;0.700;2023-04-04T00:55:24;101085.29663085938;;;4.68;78.35
44531;BME280;30240;47.418;0.700;2023-04-04T00:57:49;101082.50122070312;;;4.63;78.42
44531;BME280;30240;47.418;0.700;2023-04-04T01:00:14;101082.50122070312;;;4.63;78.42
44531;BME280;30240;47.418;0.700;2023-04-04T01:02:39;101083.4228515625;;;4.59;78.43
44531;BME280;30240;47.418;0.700;2023-04-04T01:05:05;101080.2001953125;;;4.49;78.57
44531;BME280;30240;47.418;0.700;2023-04-04T01:07:29;101080.67016601562;;;4.53;78.7
44531;BME280;30240;47.418;0.700;2023-04-04T01:09:55;101081.689453125;;;4.48;78.8
44531;BME280;30240;47.418;0.700;2023-04-04T01:12:18;101081.689453125;;;4.48;78.8
44531;BME280;30240;47.418;0.700;2023-04-04T01:14:44;101086.22436523438;;;4.46;78.71
44531;BME280;30240;47.418;0.700;2023-04-04T01:17:09;101083.48388671875;;;4.45;78.82
44531;BME280;30240;47.418;0.700;2023-04-04T01:19:36;101090.53344726562;;;4.44;78.63
44531;BME280;30240;47.418;0.700;2023-04-04T01:21:59;101088.2080078125;;;4.46;78.73
44531;BME280;30240;47.418;0.700;2023-04-04T01:24:24;101088.2080078125;;;4.46;78.73
44531;BME280;30240;47.418;0.700;2023-04-04T01:26:49;101088.28125;;;4.45;78.74
44531;BME280;30240;47.418;0.700;2023-04-04T01:29:13;101086.96899414062;;;4.3;78.95
44531;BME280;30240;47.418;0.700;2023-04-04T01:31:40;101085.83374023438;;;4.34;78.82
44531;BME280;30240;47.418;0.700;2023-04-04T01:34:08;101086.474609375;;;4.3;79.02
44531;BME280;30240;47.418;0.700;2023-04-04T01:36:31;101086.474609375;;;4.3;79.02
44531;BME280;30240;47.418;0.700;2023-04-04T01:38:58;101085.84594726562;;;4.17;79.1
44531;BME280;30240;47.418;0.700;2023-04-04T01:41:19;101087.92114257812;;;4.16;79.14
44531;BME280;30240;47.418;0.700;2023-04-04T01:43:44;101090.82641601562;;;4.1;79.27
44531;BME280;30240;47.418;0.700;2023-04-04T01:46:09;101090.0634765625;;;4.06;79.25
44531;BME280;30240;47.418;0.700;2023-04-04T01:48:33;101090.0634765625;;;4.06;79.25
44531;BME280;30240;47.418;0.700;2023-04-04T01:50:59;101094.12231445312;;;4.0;79.46
44531;BME280;30240;47.418;0.700;2023-04-04T01:53:23;101099.658203125;;;3.96;79.53
44531;BME280;30240;47.418;0.700;2023-04-04T01:55:48;101098.876953125;;;3.81;79.76
44531;BME280;30240;47.418;0.700;2023-04-04T01:58:14;101100.42114257812;;;3.85;79.85
44531;BME280;30240;47.418;0.700;2023-04-04T02:00:39;101100.42114257812;;;3.85;79.85
44531;BME280;30240;47.418;0.700;2023-04-04T02:03:03;101094.4580078125;;;3.82;79.88
44531;BME280;30240;47.418;0.700;2023-04-04T02:05:28;101097.88818359375;;;3.78;79.99
44531;BME280;30240;47.418;0.700;2023-04-04T02:07:53;101098.20556640625;;;3.71;79.87
44531;BME280;30240;47.418;0.700;2023-04-04T02:10:19;101101.0009765625;;;3.71;79.86
44531;BME280;30240;47.418;0.700;2023-04-04T02:12:44;101094.95849609375;;;3.74;79.91
44531;BME280;30240;47.418;0.700;2023-04-04T02:15:09;101094.95849609375;;;3.74;79.91
44531;BME280;30240;47.418;0.700;2023-04-04T02:17:33;101095.80688476562;;;3.65;79.79
44531;BME280;30240;47.418;0.700;2023-04-04T02:19:58;101097.93701171875;;;3.62;79.83
44531;BME280;30240;47.418;0.700;2023-04-04T02:22:24;101094.25048828125;;;3.65;79.56
44531;BME280;30240;47.418;0.700;2023-04-04T02:24:48;101091.796875;;;3.65;79.63
44531;BME280;30240;47.418;0.700;2023-04-04T02:27:13;101091.796875;;;3.65;79.63
44531;BME280;30240;47.418;0.700;2023-04-04T02:29:38;101092.138671875;;;3.61;79.61
44531;BME280;30240;47.418;0.700;2023-04-04T02:32:04;101093.8720703125;;;3.59;79.4
44531;BME280;30240;47.418;0.700;2023-04-04T02:34:28;101092.08374023438;;;3.54;79.45
44531;BME280;30240;47.418;0.700;2023-04-04T02:36:53;101090.76538085938;;;3.48;79.26
44531;BME280;30240;47.418;0.700;2023-04-04T02:39:18;101090.76538085938;;;3.48;79.26
44531;BME280;30240;47.418;0.700;2023-04-04T02:41:43;101089.17846679688;;;3.51;79.22
44531;BME280;30240;47.418;0.700;2023-04-04T02:44:08;101093.15795898438;;;3.51;79.02
44531;BME280;30240;47.418;0.700;2023-04-04T02:46:33;101089.6240234375;;;3.47;78.82
44531;BME280;30240;47.418;0.700;2023-04-04T02:48:58;101089.26391601562;;;3.43;78.71
44531;BME280;30240;47.418;0.700;2023-04-04T02:51:24;101089.26391601562;;;3.43;78.71
44531;BME280;30240;47.418;0.700;2023-04-04T02:53:48;101091.32690429688;;;3.41;78.84
44531;BME280;30240;47.418;0.700;2023-04-04T02:56:14;101090.49072265625;;;3.44;78.75
44531;BME280;30240;47.418;0.700;2023-04-04T02:58:39;101090.4296875;;;3.3;79.04
44531;BME280;30240;47.418;0.700;2023-04-04T03:01:04;101084.716796875;;;3.24;78.73
44531;BME280;30240;47.418;0.700;2023-04-04T03:03:28;101084.716796875;;;3.24;78.73
44531;BME280;30240;47.418;0.700;2023-04-04T03:05:53;101085.693359375;;;3.22;78.74
44531;BME280;30240;47.418;0.700;2023-04-04T03:08:18;101082.08618164062;;;3.23;78.49
44531;BME280;30240;47.418;0.700;2023-04-04T03:10:44;101072.607421875;;;3.23;78.37
44531;BME280;30240;47.418;0.700;2023-04-04T03:13:08;101075.72021484375;;;3.23;78.07
44531;BME280;30240;47.418;0.700;2023-04-04T03:15:33;101075.72021484375;;;3.23;78.07
44531;BME280;30240;47.418;0.700;2023-04-04T03:17:58;101077.89306640625;;;3.22;78.03
44531;BME280;30240;47.418;0.700;2023-04-04T03:20:24;101079.66918945312;;;3.22;77.96
44531;BME280;30240;47.418;0.700;2023-04-04T03:22:48;101080.84106445312;;;3.16;78.0
44531;BME280;30240;47.418;0.700;2023-04-04T03:25:14;101074.2431640625;;;3.12;78.1
44531;BME280;30240;47.418;0.700;2023-04-04T03:27:38;101074.2431640625;;;3.12;78.1
44531;BME280;30240;47.418;0.700;2023-04-04T03:30:04;101077.26440429688;;;3.13;78.03
44531;BME280;30240;47.418;0.700;2023-04-04T03:32:28;101078.72924804688;;;3.05;78.01
44531;BME280;30240;47.418;0.700;2023-04-04T03:34:53;101084.60083007812;;;3.08;77.85
44531;BME280;30240;47.418;0.700;2023-04-04T03:37:19;101083.75244140625;;;3.09;77.54
44531;BME280;30240;47.418;0.700;2023-04-04T03:39:44;101083.75244140625;;;3.09;77.54
44531;BME280;30240;47.418;0.700;2023-04-04T03:42:08;101090.76538085938;;;3.09;77.4
44531;BME280;30240;47.418;0.700;2023-04-04T03:44:33;101089.25170898438;;;3.03;77.57
44531;BME280;30240;47.418;0.700;2023-04-04T03:46:58;101094.72045898438;;;3.0;77.58
44531;BME280;30240;47.418;0.700;2023-04-04T03:49:23;101085.62622070312;;;3.02;77.74
44531;BME280;30240;47.418;0.700;2023-04-04T03:51:48;101084.79614257812;;;2.91;77.71
44531;BME280;30240;47.418;0.700;2023-04-04T03:54:13;101084.79614257812;;;2.91;77.71
44531;BME280;30240;47.418;0.700;2023-04-04T03:56:38;101078.03955078125;;;2.89;77.76
44531;BME280;30240;47.418;0.700;2023-04-04T03:59:04;101083.06274414062;;;2.85;77.6
44531;BME280;30240;47.418;0.700;2023-04-04T04:01:28;101083.06884765625;;;2.89;77.69
44531;BME280;30240;47.418;0.700;2023-04-04T04:03:53;101080.859375;;;2.87;77.83
44531;BME280;30240;47.418;0.700;2023-04-04T04:06:19;101080.859375;;;2.87;77.83
44531;BME280;30240;47.418;0.700;2023-04-04T04:08:44;101078.84521484375;;;2.82;78.0
44531;BME280;30240;47.418;0.700;2023-04-04T04:11:08;101089.83764648438;;;2.88;77.71
44531;BME280;30240;47.418;0.700;2023-04-04T04:13:34;101088.81225585938;;;2.8;77.77
44531;BME280;30240;47.418;0.700;2023-04-04T04:15:58;101088.0126953125;;;2.73;77.68
44531;BME280;30240;47.418;0.700;2023-04-04T04:18:24;101088.0126953125;;;2.73;77.68
44531;BME280;30240;47.418;0.700;2023-04-04T04:20:48;101089.76440429688;;;2.73;77.93
44531;BME280;30240;47.418;0.700;2023-04-04T04:23:14;101091.38793945312;;;2.75;77.71
44531;BME280;30240;47.418;0.700;2023-04-04T04:25:38;101093.73168945312;;;2.65;77.82
44531;BME280;30240;47.418;0.700;2023-04-04T04:28:03;101098.6328125;;;2.65;77.97
44531;BME280;30240;47.418;0.700;2023-04-04T04:30:28;101098.6328125;;;2.65;77.97
44531;BME280;30240;47.418;0.700;2023-04-04T04:32:53;101096.8505859375;;;2.67;78.0
44531;BME280;30240;47.418;0.700;2023-04-04T04:35:19;101101.06201171875;;;2.57;78.04
44531;BME280;30240;47.418;0.700;2023-04-04T04:37:43;101093.76831054688;;;2.46;78.18
44531;BME280;30240;47.418;0.700;2023-04-04T04:40:09;101092.4072265625;;;2.51;78.14
44531;BME280;30240;47.418;0.700;2023-04-04T04:42:33;101092.4072265625;;;2.51;78.14
44531;BME280;30240;47.418;0.700;2023-04-04T04:44:58;101098.13842773438;;;2.46;78.03
44531;BME280;30240;47.418;0.700;2023-04-04T04:47:23;101099.6337890625;;;2.42;78.14
44531;BME280;30240;47.418;0.700;2023-04-04T04:49:48;101098.6083984375;;;2.36;78.39
44531;BME280;30240;47.418;0.700;2023-04-04T04:52:13;101102.65502929688;;;2.37;78.4
44531;BME280;30240;47.418;0.700;2023-04-04T04:54:38;101102.65502929688;;;2.37;78.4
44531;BME280;30240;47.418;0.700;2023-04-04T04:57:03;101101.23291015625;;;2.32;78.66
44531;BME280;30240;47.418;0.700;2023-04-04T04:59:28;101103.38134765625;;;2.25;78.53
44531;BME280;30240;47.418;0.700;2023-04-04T05:01:53;101105.27954101562;;;2.19;78.65
44531;BME280;30240;47.418;0.700;2023-04-04T05:04:18;101104.35791015625;;;2.19;78.89
44531;BME280;30240;47.418;0.700;2023-04-04T05:06:43;101104.35791015625;;;2.19;78.89
44531;BME280;30240;47.418;0.700;2023-04-04T05:09:08;101097.29614257812;;;2.11;79.02
44531;BME280;30240;47.418;0.700;2023-04-04T05:11:33;101104.736328125;;;2.08;78.99
44531;BME280;30240;47.418;0.700;2023-04-04T05:13:58;101109.48486328125;;;2.08;78.99
44531;BME280;30240;47.418;0.700;2023-04-04T05:16:23;101115.25268554688;;;2.09;78.95
44531;BME280;30240;47.418;0.700;2023-04-04T05:18:49;101123.76708984375;;;2.05;79.02
44531;BME280;30240;47.418;0.700;2023-04-04T05:21:14;101123.76708984375;;;2.05;79.02
44531;BME280;30240;47.418;0.700;2023-04-04T05:23:38;101121.93603515625;;;2.04;78.98
44531;BME280;30240;47.418;0.700;2023-04-04T05:26:03;101129.0283203125;;;2.07;78.95
44531;BME280;30240;47.418;0.700;2023-04-04T05:28:28;101135.96801757812;;;2.02;78.84
44531;BME280;30240;47.418;0.700;2023-04-04T05:30:53;101132.36694335938;;;2.04;78.89
44531;BME280;30240;47.418;0.700;2023-04-04T05:33:18;101132.36694335938;;;2.04;78.89
44531;BME280;30240;47.418;0.700;2023-04-04T05:35:43;101139.03198242188;;;2.02;78.95
44531;BME280;30240;47.418;0.700;2023-04-04T05:38:08;101142.1875;;;2.08;78.95
44531;BME280;30240;47.418;0.700;2023-04-04T05:40:34;101143.896484375;;;2.07;78.99
44531;BME280;30240;47.418;0.700;2023-04-04T05:42:59;101143.1396484375;;;2.07;78.74
44531;BME280;30240;47.418;0.700;2023-04-04T05:45:24;101143.1396484375;;;2.07;78.74
44531;BME280;30240;47.418;0.700;2023-04-04T05:47:48;101146.92993164062;;;2.11;79.01
44531;BME280;30240;47.418;0.700;2023-04-04T05:50:14;101153.45458984375;;;2.09;78.93
44531;BME280;30240;47.418;0.700;2023-04-04T05:52:39;101146.59423828125;;;2.12;78.7
44531;BME280;30240;47.418;0.700;2023-04-04T05:55:04;101154.57763671875;;;2.26;78.49
44531;BME280;30240;47.418;0.700;2023-04-04T05:57:29;101154.57763671875;;;2.26;78.49
44531;BME280;30240;47.418;0.700;2023-04-04T05:59:53;101160.7421875;;;2.21;78.38
44531;BME280;30240;47.418;0.700;2023-04-04T06:02:18;101161.19384765625;;;2.18;78.43
44531;BME280;30240;47.418;0.700;2023-04-04T06:04:43;101159.6435546875;;;2.16;78.47
44531;BME280;30240;47.418;0.700;2023-04-04T06:07:09;101163.61083984375;;;2.26;78.3
44531;BME280;30240;47.418;0.700;2023-04-04T06:09:33;101163.61083984375;;;2.26;78.3
44531;BME280;30240;47.418;0.700;2023-04-04T06:11:58;101166.93115234375;;;2.26;78.62
44531;BME280;30240;47.418;0.700;2023-04-04T06:14:24;101173.6083984375;;;2.32;78.12
44531;BME280;30240;47.418;0.700;2023-04-04T06:16:48;101175.03662109375;;;2.42;78.16
44531;BME280;30240;47.418;0.700;2023-04-04T06:19:13;101177.36206054688;;;2.34;78.13
44531;BME280;30240;47.418;0.700;2023-04-04T06:21:38;101177.36206054688;;;2.34;78.13
44531;BME280;30240;47.418;0.700;2023-04-04T06:24:04;101175.14038085938;;;2.43;78.01
44531;BME280;30240;47.418;0.700;2023-04-04T06:26:28;101171.53930664062;;;2.47;78.04
44531;BME280;30240;47.418;0.700;2023-04-04T06:28:53;101179.01611328125;;;2.49;77.97
44531;BME280;30240;47.418;0.700;2023-04-04T06:31:18;101174.02954101562;;;2.49;77.88
44531;BME280;30240;47.418;0.700;2023-04-04T06:33:43;101174.02954101562;;;2.49;77.88
44531;BME280;30240;47.418;0.700;2023-04-04T06:36:08;101183.23364257812;;;2.56;77.59
44531;BME280;30240;47.418;0.700;2023-04-04T06:38:33;101185.70556640625;;;2.62;77.49
44531;BME280;30240;47.418;0.700;2023-04-04T06:40:58;101187.158203125;;;2.65;77.39
44531;BME280;30240;47.418;0.700;2023-04-04T06:43:23;101197.35717773438;;;2.87;77.25
44531;BME280;30240;47.418;0.700;2023-04-04T06:45:48;101196.86889648438;;;2.87;77.25
44531;BME280;30240;47.418;0.700;2023-04-04T06:48:13;101196.86889648438;;;2.88;77.14
44531;BME280;30240;47.418;0.700;2023-04-04T06:50:38;101193.10302734375;;;3.03;77.0
44531;BME280;30240;47.418;0.700;2023-04-04T06:53:04;101197.3876953125;;;3.13;76.68
44531;BME280;30240;47.418;0.700;2023-04-04T06:55:28;101189.5751953125;;;3.13;76.69
44531;BME280;30240;47.418;0.700;2023-04-04T06:57:54;101190.57006835938;;;3.12;76.37
44531;BME280;30240;47.418;0.700;2023-04-04T07:00:19;101190.57006835938;;;3.12;76.37
44531;BME280;30240;47.418;0.700;2023-04-04T07:02:43;101188.11645507812;;;3.26;76.42
44531;BME280;30240;47.418;0.700;2023-04-04T07:05:09;101183.33740234375;;;3.23;76.22
44531;BME280;30240;47.418;0.700;2023-04-04T07:07:33;101186.74926757812;;;3.35;76.15
44531;BME280;30240;47.418;0.700;2023-04-04T07:09:58;101184.53369140625;;;3.54;75.89
44531;BME280;30240;47.418;0.700;2023-04-04T07:12:23;101184.53369140625;;;3.54;75.89
44531;BME280;30240;47.418;0.700;2023-04-04T07:14:49;101186.15112304688;;;3.68;75.78
44531;BME280;30240;47.418;0.700;2023-04-04T07:17:13;101186.4990234375;;;3.76;75.57
44531;BME280;30240;47.418;0.700;2023-04-04T07:19:38;101182.14111328125;;;4.07;74.46
44531;BME280;30240;47.418;0.700;2023-04-04T07:22:03;101175.25024414062;;;4.31;73.77
44531;BME280;30240;47.418;0.700;2023-04-04T07:24:28;101175.25024414062;;;4.31;73.77
44531;BME280;30240;47.418;0.700;2023-04-04T07:26:53;101160.63842773438;;;5.01;72.34
44531;BME280;30240;47.418;0.700;2023-04-04T07:29:18;101162.73193359375;;;4.87;71.86
44531;BME280;30240;47.418;0.700;2023-04-04T07:31:43;101161.60888671875;;;4.98;72.06
44531;BME280;30240;47.418;0.700;2023-04-04T07:34:08;101160.2294921875;;;5.25;71.53
44531;BME280;30240;47.418;0.700;2023-04-04T07:36:33;101160.2294921875;;;5.25;71.53
44531;BME280;30240;47.418;0.700;2023-04-04T07:38:59;101147.76611328125;;;5.4;70.55
44531;BME280;30240;47.418;0.700;2023-04-04T07:41:23;101148.96850585938;;;5.73;69.73
44531;BME280;30240;47.418;0.700;2023-04-04T07:43:48;101140.625;;;6.04;68.6
44531;BME280;30240;47.418;0.700;2023-04-04T07:46:14;101141.0400390625;;;6.6;66.88
44531;BME280;30240;47.418;0.700;2023-04-04T07:48:39;101141.0400390625;;;6.6;66.88
44531;BME280;30240;47.418;0.700;2023-04-04T07:51:04;101137.3779296875;;;6.55;67.0
44531;BME280;30240;47.418;0.700;2023-04-04T07:53:28;101146.79565429688;;;7.1;66.66
44531;BME280;30240;47.418;0.700;2023-04-04T07:55:53;101143.8232421875;;;6.55;65.74
44531;BME280;30240;47.418;0.700;2023-04-04T07:58:18;101145.34301757812;;;6.96;66.18
44531;BME280;30240;47.418;0.700;2023-04-04T08:00:43;101145.34301757812;;;6.96;66.18
44531;BME280;30240;47.418;0.700;2023-04-04T08:03:08;101144.61059570312;;;6.48;66.1
44531;BME280;30240;47.418;0.700;2023-04-04T08:05:33;101137.72583007812;;;6.67;65.9
44531;BME280;30240;47.418;0.700;2023-04-04T08:07:58;101126.28784179688;;;7.05;64.44
44531;BME280;30240;47.418;0.700;2023-04-04T08:10:23;101135.986328125;;;7.48;64.06
44531;BME280;30240;47.418;0.700;2023-04-04T08:12:49;101135.986328125;;;7.48;64.06
44531;BME280;30240;47.418;0.700;2023-04-04T08:15:14;101141.09497070312;;;7.59;63.0
44531;BME280;30240;47.418;0.700;2023-04-04T08:17:39;101126.98974609375;;;7.66;62.74
44531;BME280;30240;47.418;0.700;2023-04-04T08:20:04;101135.33325195312;;;8.18;61.65
44531;BME280;30240;47.418;0.700;2023-04-04T08:22:29;101138.48266601562;;;7.82;61.86
44531;BME280;30240;47.418;0.700;2023-04-04T08:24:53;101143.46923828125;;;8.07;62.39
44531;BME280;30240;47.418;0.700;2023-04-04T08:27:19;101143.46923828125;;;8.07;62.39
44531;BME280;30240;47.418;0.700;2023-04-04T08:29:44;101145.0927734375;;;8.72;60.57
44531;BME280;30240;47.418;0.700;2023-04-04T08:32:09;101143.017578125;;;8.38;60.51
44531;BME280;30240;47.418;0.700;2023-04-04T08:34:33;101133.95385742188;;;9.26;58.95
44531;BME280;30240;47.418;0.700;2023-04-04T08:36:58;101138.70849609375;;;9.04;58.83
44531;BME280;30240;47.418;0.700;2023-04-04T08:39:23;101138.70849609375;;;9.04;58.83
44531;BME280;30240;47.418;0.700;2023-04-04T08:41:53;101137.98217773438;;;8.67;59.72
44531;BME280;30240;47.418;0.700;2023-04-04T08:44:15;101149.21875;;;9.94;57.37
44531;BME280;30240;47.418;0.700;2023-04-04T08:46:39;101150.830078125;;;9.36;58.24
44531;BME280;30240;47.418;0.700;2023-04-04T08:49:03;101156.01806640625;;;9.57;57.09
44531;BME280;30240;47.418;0.700;2023-04-04T08:51:29;101156.01806640625;;;9.57;57.09
44531;BME280;30240;47.418;0.700;2023-04-04T08:53:54;101154.43725585938;;;8.85;58.84
44531;BME280;30240;47.418;0.700;2023-04-04T08:56:18;101155.60913085938;;;8.53;59.33
44531;BME280;30240;47.418;0.700;2023-04-04T08:58:43;101158.7158203125;;;9.54;58.01
44531;BME280;30240;47.418;0.700;2023-04-04T09:01:09;101157.5927734375;;;8.56;56.91
44531;BME280;30240;47.418;0.700;2023-04-04T09:03:34;101157.5927734375;;;8.56;56.91
44531;BME280;30240;47.418;0.700;2023-04-04T09:06:00;101167.29736328125;;;10.08;54.41
44531;BME280;30240;47.418;0.700;2023-04-04T09:08:23;101170.5322265625;;;10.95;54.12
44531;BME280;30240;47.418;0.700;2023-04-04T09:10:49;101169.25048828125;;;10.5;54.16
44531;BME280;30240;47.418;0.700;2023-04-04T09:13:13;101160.888671875;;;10.61;53.33
44531;BME280;30240;47.418;0.700;2023-04-04T09:15:40;101160.888671875;;;10.61;53.33
44531;BME280;30240;47.418;0.700;2023-04-04T09:18:03;101168.65844726562;;;11.47;52.41
44531;BME280;30240;47.418;0.700;2023-04-04T09:20:32;101166.59545898438;;;11.47;52.03
44531;BME280;30240;47.418;0.700;2023-04-04T09:22:53;101167.236328125;;;10.36;52.52
44531;BME280;30240;47.418;0.700;2023-04-04T09:25:18;101167.99926757812;;;10.26;52.27
44531;BME280;30240;47.418;0.700;2023-04-04T09:27:44;101167.99926757812;;;10.26;52.27
44531;BME280;30240;47.418;0.700;2023-04-04T09:30:09;101170.53833007812;;;9.94;51.63
44531;BME280;30240;47.418;0.700;2023-04-04T09:32:34;101175.732421875;;;10.56;50.63
44531;BME280;30240;47.418;0.700;2023-04-04T09:34:59;101174.0966796875;;;10.41;51.07
44531;BME280;30240;47.418;0.700;2023-04-04T09:37:23;101178.54614257812;;;10.72;50.93
44531;BME280;30240;47.418;0.700;2023-04-04T09:39:48;101178.54614257812;;;10.72;50.93
44531;BME280;30240;47.418;0.700;2023-04-04T09:42:14;101186.65771484375;;;10.99;51.22
44531;BME280;30240;47.418;0.700;2023-04-04T09:44:39;101174.81079101562;;;11.17;50.37
44531;BME280;30240;47.418;0.700;2023-04-04T09:47:06;101182.50732421875;;;11.13;48.52
44531;BME280;30240;47.418;0.700;2023-04-04T09:47:22;101182.50732421875;;;11.13;48.52
44531;BME280;30240;47.418;0.700;2023-04-04T09:49:30;101175.01831054688;;;11.1;46.04
44531;BME280;30240;47.418;0.700;2023-04-04T09:51:53;101180.419921875;;;11.38;45.98
44531;BME280;30240;47.418;0.700;2023-04-04T09:54:20;101180.419921875;;;11.38;45.98
44531;BME280;30240;47.418;0.700;2023-04-04T09:56:43;101182.80639648438;;;11.58;48.15
44531;BME280;30240;47.418;0.700;2023-04-04T09:59:08;101179.91943359375;;;11.55;48.55
44531;BME280;30240;47.418;0.700;2023-04-04T10:01:33;101182.97729492188;;;11.55;47.78
44531;BME280;30240;47.418;0.700;2023-04-04T10:03:58;101176.89208984375;;;11.15;48.71
44531;BME280;30240;47.418;0.700;2023-04-04T10:06:24;101176.89208984375;;;11.15;48.71
44531;BME280;30240;47.418;0.700;2023-04-04T10:08:49;101177.81372070312;;;11.82;47.75
44531;BME280;30240;47.418;0.700;2023-04-04T10:11:28;101180.62744140625;;;12.51;46.01
44531;BME280;30240;47.418;0.700;2023-04-04T10:13:39;101168.46923828125;;;11.64;46.76
44531;BME280;30240;47.418;0.700;2023-04-04T10:16:04;101157.39135742188;;;11.82;45.84
44531;BME280;30240;47.418;0.700;2023-04-04T10:18:30;101157.39135742188;;;11.82;45.84
44531;BME280;30240;47.418;0.700;2023-04-04T10:20:55;101163.00048828125;;;11.94;44.72
44531;BME280;30240;47.418;0.700;2023-04-04T10:23:20;101155.82885742188;;;11.05;45.44
44531;BME280;30240;47.418;0.700;2023-04-04T10:25:44;101166.26586914062;;;11.51;44.83
44531;BME280;30240;47.418;0.700;2023-04-04T10:28:09;101168.27392578125;;;11.55;46.38
44531;BME280;30240;47.418;0.700;2023-04-04T10:30:39;101168.27392578125;;;11.55;46.38
44531;BME280;30240;47.418;0.700;2023-04-04T10:33:00;101172.03369140625;;;12.28;44.3
44531;BME280;30240;47.418;0.700;2023-04-04T10:35:24;101172.67456054688;;;12.97;43.14
44531;BME280;30240;47.418;0.700;2023-04-04T10:37:51;101172.17407226562;;;12.31;44.54
44531;BME280;30240;47.418;0.700;2023-04-04T10:40:15;101164.78881835938;;;12.27;44.53
44531;BME280;30240;47.418;0.700;2023-04-04T10:42:41;101164.78881835938;;;12.27;44.53
44531;BME280;30240;47.418;0.700;2023-04-04T10:45:05;101162.48168945312;;;12.6;44.86
44531;BME280;30240;47.418;0.700;2023-04-04T10:47:29;101162.82958984375;;;13.0;45.37
44531;BME280;30240;47.418;0.700;2023-04-04T10:49:54;101160.46752929688;;;12.46;43.8
44531;BME280;30240;47.418;0.700;2023-04-04T10:52:20;101160.71166992188;;;12.4;42.27
44531;BME280;30240;47.418;0.700;2023-04-04T10:54:44;101160.71166992188;;;12.4;42.27
44531;BME280;30240;47.418;0.700;2023-04-04T10:57:09;101162.86010742188;;;13.26;41.72
44531;BME280;30240;47.418;0.700;2023-04-04T10:59:57;101151.1474609375;;;13.14;41.73
44531;BME280;30240;47.418;0.700;2023-04-04T11:01:59;101151.38549804688;;;13.38;41.34
44531;BME280;30240;47.418;0.700;2023-04-04T11:04:32;101146.82006835938;;;12.44;42.79
44531;BME280;30240;47.418;0.700;2023-04-04T11:07:12;101146.82006835938;;;12.44;42.79
44531;BME280;30240;47.418;0.700;2023-04-04T11:09:13;101145.62377929688;;;13.17;41.52
44531;BME280;30240;47.418;0.700;2023-04-04T11:12:07;101140.76538085938;;;12.89;41.74
44531;BME280;30240;47.418;0.700;2023-04-04T11:14:04;101139.61791992188;;;12.31;43.42
44531;BME280;30240;47.418;0.700;2023-04-04T11:16:44;101134.765625;;;12.89;41.75
44531;BME280;30240;47.418;0.700;2023-04-04T11:18:58;101134.765625;;;12.89;41.75
44531;BME280;30240;47.418;0.700;2023-04-04T11:21:20;101131.73217773438;;;12.58;41.37
44531;BME280;30240;47.418;0.700;2023-04-04T11:24:12;101130.71899414062;;;12.68;41.03
44531;BME280;30240;47.418;0.700;2023-04-04T11:26:09;101134.5947265625;;;12.79;40.53
44531;BME280;30240;47.418;0.700;2023-04-04T11:28:44;101130.84106445312;;;13.0;41.69